createdAt,value
2022-12-17T00:02:33.122Z,34.00
2022-12-17T00:06:07.760Z,37.70
2022-12-17T00:09:31.129Z,37.70
2022-12-17T00:12:54.105Z,39.60
2022-12-17T00:16:19.718Z,39.70
2022-12-17T00:19:43.276Z,38.90
2022-12-17T00:23:06.641Z,39.80
2022-12-17T00:26:30.009Z,37.20
2022-12-17T00:29:53.277Z,37.50
2022-12-17T00:33:18.995Z,36.00
2022-12-17T00:36:42.668Z,34.90
2022-12-17T00:40:20.781Z,37.50
2022-12-17T00:43:44.458Z,34.40
2022-12-17T00:47:07.744Z,35.70
2022-12-17T00:50:31.189Z,35.90
2022-12-17T00:53:54.353Z,37.10
2022-12-17T00:57:18.333Z,35.20
2022-12-17T01:00:41.767Z,36.60
2022-12-17T01:04:04.783Z,36.10
2022-12-17T01:07:27.929Z,36.40
2022-12-17T01:10:51.186Z,37.50
2022-12-17T01:14:14.450Z,36.60
2022-12-17T01:17:37.920Z,36.90
2022-12-17T01:21:00.879Z,38.50
2022-12-17T01:24:33.666Z,36.60
2022-12-17T01:27:56.731Z,37.50
2022-12-17T01:31:20.322Z,39.00
2022-12-17T01:34:40.082Z,37.10
2022-12-17T01:38:03.966Z,38.20
2022-12-17T01:41:27.835Z,35.60
2022-12-17T01:45:13.218Z,36.40
2022-12-17T01:51:59.749Z,34.10
2022-12-17T01:55:25.269Z,35.40
2022-12-17T01:58:49.658Z,37.30
2022-12-17T02:02:12.894Z,34.70
2022-12-17T02:05:37.441Z,34.10
2022-12-17T02:09:11.521Z,35.70
2022-12-17T02:12:44.121Z,34.40
2022-12-17T02:16:13.021Z,32.70
2022-12-17T02:19:48.578Z,32.60
2022-12-17T02:23:20.537Z,31.20
2022-12-17T02:26:54.893Z,31.10
2022-12-17T02:30:20.788Z,30.90
2022-12-17T02:37:06.703Z,28.30
2022-12-17T02:40:31.515Z,29.90
2022-12-17T02:43:55.723Z,30.10
2022-12-17T02:47:21.513Z,30.00
2022-12-17T02:50:44.983Z,30.60
2022-12-17T02:54:13.062Z,29.90
2022-12-17T02:57:38.084Z,33.40
2022-12-17T03:01:04.392Z,33.00
2022-12-17T03:04:27.876Z,31.70
2022-12-17T03:07:51.334Z,32.90
2022-12-17T03:11:25.868Z,32.40
2022-12-17T03:14:49.030Z,33.80
2022-12-17T03:18:12.910Z,34.80
2022-12-17T03:21:36.176Z,33.10
2022-12-17T03:24:59.488Z,33.40
2022-12-17T03:28:26.213Z,32.40
2022-12-17T03:31:49.553Z,31.50
2022-12-17T03:35:12.824Z,32.20
2022-12-17T03:38:36.083Z,35.00
2022-12-17T03:41:59.250Z,33.00
2022-12-17T03:45:23.021Z,30.10
2022-12-17T03:48:46.285Z,30.80
2022-12-17T03:52:09.756Z,30.20
2022-12-17T03:55:33.076Z,30.10
2022-12-17T03:58:56.308Z,31.60
2022-12-17T04:02:20.649Z,28.00
2022-12-17T04:05:44.554Z,28.50
2022-12-17T04:09:07.820Z,27.70
2022-12-17T04:12:30.980Z,28.40
2022-12-17T04:15:54.251Z,29.70
2022-12-17T04:19:17.542Z,28.50
2022-12-17T04:22:48.863Z,27.50
2022-12-17T04:26:11.797Z,25.80
2022-12-17T04:29:34.984Z,28.10
2022-12-17T04:32:57.874Z,27.30
2022-12-17T04:36:21.306Z,26.60
2022-12-17T04:39:44.572Z,28.10
2022-12-17T04:43:07.657Z,27.80
2022-12-17T04:46:30.842Z,28.10
2022-12-17T04:49:54.369Z,28.70
2022-12-17T04:53:21.932Z,26.80
2022-12-17T04:56:46.014Z,26.60
2022-12-17T05:00:09.077Z,25.90
2022-12-17T05:03:35.120Z,46.10
2022-12-17T05:06:58.575Z,33.50
2022-12-17T05:10:27.368Z,29.60
2022-12-17T05:13:50.632Z,31.70
2022-12-17T05:17:13.703Z,30.90
2022-12-17T05:20:36.957Z,29.30
2022-12-17T05:23:56.534Z,25.80
2022-12-17T05:27:19.801Z,24.40
2022-12-17T05:30:43.161Z,27.20
2022-12-17T05:34:06.431Z,25.30
2022-12-17T05:37:30.009Z,25.90
2022-12-17T05:40:53.780Z,25.30
2022-12-17T05:44:17.047Z,25.50
2022-12-17T05:47:40.616Z,26.90
2022-12-17T05:51:07.463Z,26.90
2022-12-17T05:54:30.833Z,25.50
2022-12-17T05:57:56.578Z,27.50
2022-12-17T06:01:22.119Z,25.10
2022-12-17T06:04:45.189Z,25.90
2022-12-17T06:08:08.497Z,25.70
2022-12-17T06:11:32.069Z,25.70
2022-12-17T06:14:55.748Z,24.00
2022-12-17T06:18:19.519Z,23.60
2022-12-17T06:21:43.399Z,24.70
2022-12-17T06:25:06.463Z,25.20
2022-12-17T06:28:44.712Z,26.40
2022-12-17T06:32:08.247Z,26.30
2022-12-17T06:35:31.513Z,26.70
2022-12-17T06:38:54.775Z,27.30
2022-12-17T06:42:17.734Z,28.70
2022-12-17T06:45:41.206Z,27.50
2022-12-17T06:49:05.480Z,26.30
2022-12-17T06:52:28.790Z,27.30
2022-12-17T06:55:52.031Z,27.70
2022-12-17T06:59:15.286Z,29.10
2022-12-17T07:02:38.868Z,29.60
2022-12-17T07:06:02.633Z,29.70
2022-12-17T07:09:26.307Z,30.00
2022-12-17T07:12:49.878Z,28.80
2022-12-17T07:16:13.766Z,30.50
2022-12-17T07:19:37.329Z,30.10
2022-12-17T07:23:00.391Z,32.20
2022-12-17T07:26:24.181Z,32.30
2022-12-17T07:29:47.124Z,36.10
2022-12-17T07:33:18.017Z,36.00
2022-12-17T07:36:41.133Z,38.80
2022-12-17T07:40:04.597Z,38.90
2022-12-17T07:43:32.265Z,37.60
2022-12-17T07:46:55.150Z,38.80
2022-12-17T07:50:18.390Z,36.10
2022-12-17T07:53:41.773Z,37.50
2022-12-17T07:57:05.225Z,37.10
2022-12-17T08:00:31.151Z,35.90
2022-12-17T08:07:16.142Z,35.00
2022-12-17T08:10:41.761Z,33.30
2022-12-17T08:14:05.380Z,33.70
2022-12-17T08:17:28.699Z,32.40
2022-12-17T08:20:52.164Z,33.20
2022-12-17T08:24:15.855Z,34.00
2022-12-17T08:27:39.209Z,33.80
2022-12-17T08:31:05.987Z,34.10
2022-12-17T08:34:29.631Z,35.00
2022-12-17T08:37:52.796Z,35.60
2022-12-17T08:41:18.040Z,37.20
2022-12-17T08:44:41.780Z,38.50
2022-12-17T08:48:04.956Z,35.90
2022-12-17T08:51:27.799Z,35.50
2022-12-17T08:54:51.165Z,35.50
2022-12-17T08:58:15.964Z,35.40
2022-12-17T09:01:53.919Z,34.60
2022-12-17T09:05:17.239Z,34.80
2022-12-17T09:08:40.709Z,33.70
2022-12-17T09:12:04.178Z,33.80
2022-12-17T09:15:28.671Z,34.10
2022-12-17T09:18:52.243Z,35.50
2022-12-17T09:22:15.208Z,35.00
2022-12-17T09:25:38.519Z,36.30
2022-12-17T09:29:01.657Z,37.50
2022-12-17T09:32:25.089Z,37.10
2022-12-17T09:35:48.253Z,40.20
2022-12-17T09:39:10.398Z,38.20
2022-12-17T09:42:45.550Z,36.20
2022-12-17T09:46:21.953Z,38.60
2022-12-17T09:49:47.531Z,36.60
2022-12-17T09:53:11.259Z,38.80
2022-12-17T09:56:37.238Z,38.60
2022-12-17T10:00:00.810Z,38.30
2022-12-17T10:03:29.133Z,37.60
2022-12-17T10:06:54.094Z,37.90
2022-12-17T10:10:22.683Z,37.60
2022-12-17T10:13:45.743Z,37.90
2022-12-17T10:17:12.073Z,37.30
2022-12-17T10:20:40.678Z,37.90
2022-12-17T10:24:03.832Z,38.10
2022-12-17T10:27:30.679Z,39.70
2022-12-17T10:30:51.324Z,39.40
2022-12-17T10:34:17.107Z,39.40
2022-12-17T10:37:41.191Z,38.20
2022-12-17T10:41:04.456Z,39.20
2022-12-17T10:44:43.798Z,39.60
2022-12-17T10:48:21.601Z,39.90
2022-12-17T10:51:51.215Z,40.70
2022-12-17T10:55:20.632Z,40.60
2022-12-17T10:58:48.293Z,40.50
2022-12-17T11:02:18.649Z,40.00
2022-12-17T11:05:46.392Z,39.40
2022-12-17T11:09:10.271Z,40.90
2022-12-17T11:12:35.893Z,42.20
2022-12-17T11:16:05.397Z,40.50
2022-12-17T11:19:50.374Z,42.60
2022-12-17T11:23:16.514Z,40.20
2022-12-17T11:26:52.422Z,41.30
2022-12-17T11:30:15.938Z,40.90
2022-12-17T11:33:58.779Z,42.70
2022-12-17T11:37:32.975Z,42.80
2022-12-17T11:41:00.549Z,42.90
2022-12-17T11:44:33.028Z,43.70
2022-12-17T11:48:06.021Z,42.30
2022-12-17T11:51:36.351Z,42.00
2022-12-17T11:55:21.727Z,40.30
2022-12-17T11:58:54.113Z,40.80
2022-12-17T12:02:25.506Z,41.50
2022-12-17T12:06:15.664Z,41.50
2022-12-17T12:09:47.426Z,41.70
2022-12-17T12:13:23.185Z,41.10
2022-12-17T12:16:52.385Z,41.00
2022-12-17T12:20:23.439Z,38.30
2022-12-17T12:23:56.945Z,39.80
2022-12-17T12:27:35.535Z,40.30
2022-12-17T12:31:13.193Z,42.30
2022-12-17T12:34:43.187Z,41.40
2022-12-17T12:38:06.861Z,49.00
2022-12-17T12:41:38.012Z,85.70
2022-12-17T12:45:08.037Z,60.20
2022-12-17T12:48:44.484Z,60.70
2022-12-17T12:52:10.954Z,77.80
2022-12-17T12:55:34.007Z,55.30
2022-12-17T12:58:56.351Z,64.80
2022-12-17T13:02:19.882Z,49.10
2022-12-17T13:55:28.585Z,63.60
2022-12-17T13:58:33.601Z,58.80
2022-12-17T14:01:46.141Z,57.00
2022-12-17T14:04:52.780Z,53.30
2022-12-17T14:07:58.620Z,71.30
2022-12-17T14:11:23.015Z,66.90
2022-12-17T14:14:31.633Z,76.20
2022-12-17T14:17:40.232Z,128.70
2022-12-17T14:20:43.555Z,57.40
2022-12-17T14:23:49.821Z,84.00
2022-12-17T14:29:56.823Z,71.90
2022-12-17T14:32:59.944Z,70.10
2022-12-17T14:36:06.256Z,57.50
2022-12-17T14:42:25.594Z,70.40
2022-12-17T14:45:29.177Z,57.10
2022-12-17T14:48:46.525Z,65.10
2022-12-17T14:51:50.264Z,56.90
2022-12-17T14:54:53.096Z,60.30
2022-12-17T14:58:14.816Z,59.10
2022-12-17T15:01:18.094Z,58.70
2022-12-17T15:04:21.969Z,67.20
2022-12-17T15:07:27.183Z,58.30
2022-12-17T15:10:29.929Z,58.70
2022-12-17T15:13:33.153Z,59.80
2022-12-17T15:16:35.952Z,54.40
2022-12-17T15:19:38.828Z,84.10
2022-12-17T15:22:41.627Z,65.40
2022-12-17T15:25:47.026Z,60.60
2022-12-17T15:28:50.546Z,52.10
2022-12-17T15:31:53.355Z,54.50
2022-12-17T15:34:56.121Z,53.30
2022-12-17T15:37:59.161Z,53.40
2022-12-17T15:41:22.897Z,55.80
2022-12-17T15:44:26.491Z,72.70
2022-12-17T15:47:29.376Z,53.20
2022-12-17T15:50:32.167Z,81.70
2022-12-17T15:53:35.560Z,57.10
2022-12-17T15:56:38.542Z,54.30
2022-12-17T15:59:41.323Z,56.60
2022-12-17T16:02:44.301Z,55.30
2022-12-17T16:05:47.337Z,56.30
2022-12-17T16:08:50.143Z,55.40
2022-12-17T16:11:54.421Z,54.90
2022-12-17T16:14:57.196Z,58.30
2022-12-17T16:17:59.990Z,55.50
2022-12-17T16:21:03.613Z,57.20
2022-12-17T16:24:07.680Z,53.40
2022-12-17T16:27:10.420Z,51.60
2022-12-17T16:30:14.891Z,54.70
2022-12-17T16:33:17.652Z,52.40
2022-12-17T16:36:21.812Z,54.50
2022-12-17T16:39:24.578Z,53.60
2022-12-17T16:42:27.595Z,53.00
2022-12-17T16:45:30.342Z,54.70
2022-12-17T16:48:38.480Z,71.60
2022-12-17T16:51:41.871Z,80.50
2022-12-17T16:54:44.662Z,66.70
2022-12-17T16:57:47.422Z,82.30
2022-12-17T17:00:55.005Z,94.00
2022-12-17T17:03:58.186Z,68.80
2022-12-17T17:07:01.228Z,68.20
2022-12-17T17:10:04.940Z,61.10
2022-12-17T17:13:07.740Z,77.00
2022-12-17T17:16:11.250Z,72.60
2022-12-17T17:19:14.348Z,66.00
2022-12-17T17:22:17.197Z,64.30
2022-12-17T17:25:19.981Z,98.80
2022-12-17T17:28:22.766Z,66.00
2022-12-17T17:31:46.483Z,65.60
2022-12-17T17:34:48.720Z,79.90
2022-12-17T17:37:51.460Z,63.40
2022-12-17T17:40:57.791Z,67.50
2022-12-17T17:47:03.778Z,61.30
2022-12-17T17:50:08.413Z,73.70
2022-12-17T17:53:11.133Z,65.70
2022-12-17T17:56:16.908Z,71.60
2022-12-17T17:59:20.103Z,60.50
2022-12-17T18:02:22.998Z,60.70
2022-12-17T18:05:26.083Z,61.50
2022-12-17T18:08:30.311Z,65.60
2022-12-17T18:11:33.541Z,68.20
2022-12-17T18:14:41.840Z,61.30
2022-12-17T18:17:46.639Z,60.60
2022-12-17T18:20:49.399Z,59.10
2022-12-17T18:23:56.221Z,62.90
2022-12-17T18:26:59.088Z,63.90
2022-12-17T18:30:01.873Z,65.50
2022-12-17T18:33:04.840Z,69.30
2022-12-17T18:36:16.424Z,81.70
2022-12-17T18:39:21.690Z,80.00
2022-12-17T18:42:42.904Z,59.20
2022-12-17T18:45:46.003Z,57.70
2022-12-17T18:48:51.065Z,56.80
2022-12-17T18:51:55.915Z,54.50
2022-12-17T18:54:58.956Z,55.00
2022-12-17T18:58:01.745Z,73.50
2022-12-17T19:01:05.380Z,54.70
2022-12-17T19:04:12.027Z,57.00
2022-12-17T19:07:15.756Z,55.30
2022-12-17T19:10:18.870Z,51.50
2022-12-17T19:13:21.942Z,52.60
2022-12-17T19:16:27.272Z,71.20
2022-12-17T19:19:30.250Z,68.80
2022-12-17T19:22:33.324Z,55.40
2022-12-17T19:25:36.420Z,53.20
2022-12-17T19:28:40.527Z,51.10
2022-12-17T19:31:46.741Z,54.00
2022-12-17T19:34:49.596Z,50.60
2022-12-17T19:37:53.373Z,53.30
2022-12-17T19:40:56.396Z,61.30
2022-12-17T19:44:04.604Z,52.40
2022-12-17T19:47:07.849Z,55.10
2022-12-17T19:50:12.057Z,54.40
2022-12-17T19:53:14.833Z,49.80
2022-12-17T19:56:20.059Z,54.20
2022-12-17T19:59:23.421Z,47.80
2022-12-17T20:02:32.315Z,50.40
2022-12-17T20:05:36.367Z,50.80
2022-12-17T20:08:40.554Z,51.20
2022-12-17T20:11:53.286Z,55.00
2022-12-17T20:14:58.305Z,51.60
2022-12-17T20:18:01.364Z,50.40
2022-12-17T20:21:06.938Z,45.50
2022-12-17T20:24:11.501Z,45.40
2022-12-17T20:27:14.661Z,45.30
2022-12-17T20:30:22.197Z,41.80
2022-12-17T20:33:25.505Z,41.80
2022-12-17T20:36:44.152Z,41.80
2022-12-17T20:39:47.301Z,42.20
2022-12-17T20:42:52.400Z,39.20
2022-12-17T20:45:55.619Z,41.20
2022-12-17T20:49:00.014Z,42.00
2022-12-17T20:52:03.292Z,42.90
2022-12-17T20:55:07.851Z,37.20
2022-12-17T20:58:12.947Z,41.10
2022-12-17T21:01:18.862Z,42.00
2022-12-17T21:04:22.131Z,65.40
2022-12-17T21:07:24.952Z,46.90
2022-12-17T21:10:28.209Z,58.10
2022-12-17T21:13:31.325Z,81.20
2022-12-17T21:16:35.166Z,73.50
2022-12-17T21:19:38.085Z,62.30
2022-12-17T21:22:42.442Z,68.10
2022-12-17T21:25:45.306Z,132.40
2022-12-17T21:28:50.473Z,74.90
2022-12-17T21:31:53.332Z,62.30
2022-12-17T21:34:56.424Z,57.50
2022-12-17T21:37:59.152Z,43.60
2022-12-17T21:41:07.142Z,41.20
2022-12-17T21:44:12.758Z,42.50
2022-12-17T21:47:16.289Z,42.00
2022-12-17T21:50:20.690Z,40.00
2022-12-17T21:53:23.848Z,38.50
2022-12-17T21:56:27.184Z,39.00
2022-12-17T21:59:31.067Z,36.70
2022-12-17T22:02:34.330Z,37.20
2022-12-17T22:05:38.676Z,38.80
2022-12-17T22:08:42.727Z,40.00
2022-12-17T22:11:45.896Z,40.10
2022-12-17T22:14:48.905Z,40.10
2022-12-17T22:17:53.430Z,38.30
2022-12-17T22:21:01.825Z,39.90
2022-12-17T22:24:06.348Z,37.70
2022-12-17T22:27:09.727Z,37.90
2022-12-17T22:30:34.168Z,41.00
2022-12-17T22:34:07.252Z,36.30
2022-12-17T22:38:29.360Z,34.10
2022-12-17T22:44:29.672Z,38.50
2022-12-17T22:44:42.340Z,31.40
2022-12-17T22:47:08.033Z,32.50
2022-12-17T22:50:11.492Z,32.60
2022-12-17T22:53:14.747Z,34.80
2022-12-17T22:56:35.689Z,36.40
2022-12-17T22:59:41.586Z,36.00
2022-12-17T23:02:44.381Z,35.50
2022-12-17T23:05:47.176Z,35.00
2022-12-17T23:08:50.423Z,34.10
2022-12-17T23:11:53.276Z,34.00
2022-12-17T23:14:56.045Z,35.30
2022-12-17T23:18:01.005Z,31.30
2022-12-17T23:21:08.196Z,31.00
2022-12-17T23:24:11.082Z,31.00
2022-12-17T23:27:13.808Z,28.20
2022-12-17T23:30:17.767Z,27.30
2022-12-17T23:33:20.552Z,28.10
2022-12-17T23:36:25.071Z,26.40
2022-12-17T23:39:27.874Z,26.90
2022-12-17T23:42:30.851Z,22.90
2022-12-17T23:45:33.604Z,24.60
2022-12-17T23:48:44.822Z,25.00
2022-12-17T23:51:48.421Z,25.10
2022-12-17T23:54:51.187Z,24.70
2022-12-17T23:57:55.962Z,25.40
